createdAt,value
2023-05-21T00:00:30.125Z,94.50
2023-05-21T00:02:59.389Z,94.40
2023-05-21T00:05:26.877Z,94.30
2023-05-21T00:07:55.041Z,94.10
2023-05-21T00:10:22.523Z,94.30
2023-05-21T00:12:49.789Z,94.20
2023-05-21T00:15:16.942Z,94.20
2023-05-21T00:17:44.658Z,94.10
2023-05-21T00:20:13.082Z,94.20
2023-05-21T00:22:42.599Z,94.50
2023-05-21T00:25:13.039Z,94.60
2023-05-21T00:27:40.312Z,94.70
2023-05-21T00:30:08.410Z,94.40
2023-05-21T00:32:35.558Z,94.50
2023-05-21T00:35:03.068Z,94.70
2023-05-21T00:37:33.068Z,94.80
2023-05-21T00:40:06.611Z,94.80
2023-05-21T00:42:33.864Z,95.00
2023-05-21T00:45:03.748Z,94.90
2023-05-21T00:47:31.329Z,95.00
2023-05-21T00:49:59.235Z,94.90
2023-05-21T00:52:29.616Z,95.20
2023-05-21T00:54:56.823Z,94.90
2023-05-21T00:57:27.242Z,94.90
2023-05-21T00:59:54.704Z,95.20
2023-05-21T01:02:24.416Z,94.80
2023-05-21T01:04:56.086Z,94.80
2023-05-21T01:07:23.435Z,95.10
2023-05-21T01:09:50.851Z,94.90
2023-05-21T01:12:19.426Z,95.20
2023-05-21T01:14:47.508Z,95.30
2023-05-21T01:17:15.932Z,95.20
2023-05-21T01:19:44.776Z,95.30
2023-05-21T01:22:14.344Z,95.40
2023-05-21T01:24:41.792Z,95.40
2023-05-21T01:27:10.589Z,95.40
2023-05-21T01:29:37.904Z,95.20
2023-05-21T01:32:25.113Z,95.20
2023-05-21T01:35:09.581Z,95.40
2023-05-21T01:38:16.011Z,95.20
2023-05-21T01:40:54.460Z,95.40
2023-05-21T01:43:24.154Z,95.50
2023-05-21T01:45:55.857Z,95.40
2023-05-21T01:48:27.323Z,95.60
2023-05-21T01:50:58.018Z,95.40
2023-05-21T01:53:25.325Z,95.40
2023-05-21T01:55:52.671Z,95.60
2023-05-21T01:58:21.213Z,95.70
2023-05-21T02:00:51.097Z,95.70
2023-05-21T02:03:22.084Z,95.90
2023-05-21T02:05:52.113Z,95.70
2023-05-21T02:08:20.180Z,95.70
2023-05-21T02:10:47.642Z,95.80
2023-05-21T02:13:14.775Z,96.20
2023-05-21T02:15:42.535Z,96.20
2023-05-21T02:18:09.732Z,96.20
2023-05-21T02:20:36.942Z,96.40
2023-05-21T02:23:04.108Z,96.40
2023-05-21T02:25:31.327Z,96.50
2023-05-21T02:27:58.445Z,96.70
2023-05-21T02:30:25.617Z,96.60
2023-05-21T02:32:53.945Z,96.50
2023-05-21T02:35:21.273Z,96.60
2023-05-21T02:37:49.022Z,96.60
2023-05-21T02:40:16.482Z,96.70
2023-05-21T02:42:43.750Z,96.50
2023-05-21T02:45:15.463Z,96.40
2023-05-21T02:47:43.949Z,96.60
2023-05-21T02:50:11.343Z,96.70
2023-05-21T02:52:46.392Z,96.60
2023-05-21T02:55:13.982Z,96.70
2023-05-21T02:57:41.129Z,96.90
2023-05-21T03:00:09.970Z,96.80
2023-05-21T03:02:38.813Z,96.50
2023-05-21T03:05:07.011Z,96.70
2023-05-21T03:07:34.163Z,96.90
2023-05-21T03:10:01.830Z,96.80
2023-05-21T03:12:28.996Z,97.00
2023-05-21T03:14:56.419Z,97.10
2023-05-21T03:17:23.912Z,97.00
2023-05-21T03:19:52.059Z,97.20
2023-05-21T03:22:20.130Z,96.90
2023-05-21T03:24:47.440Z,96.30
2023-05-21T03:27:15.305Z,96.60
2023-05-21T03:29:44.647Z,97.00
2023-05-21T03:32:14.068Z,97.10
2023-05-21T03:34:42.168Z,97.00
2023-05-21T03:37:09.362Z,97.00
2023-05-21T03:39:37.173Z,97.20
2023-05-21T03:42:06.172Z,97.20
2023-05-21T03:44:40.469Z,97.30
2023-05-21T03:47:30.289Z,97.20
2023-05-21T03:49:58.136Z,97.20
2023-05-21T03:52:25.358Z,97.40
2023-05-21T03:54:52.540Z,97.10
2023-05-21T03:57:19.737Z,98.80
2023-05-21T03:59:47.928Z,97.10
2023-05-21T04:02:15.630Z,97.10
2023-05-21T04:04:44.480Z,97.40
2023-05-21T04:07:15.314Z,97.40
2023-05-21T04:09:42.562Z,96.90
2023-05-21T04:12:09.681Z,96.70
2023-05-21T04:14:38.172Z,96.50
2023-05-21T04:17:05.863Z,96.80
2023-05-21T04:19:33.777Z,96.80
2023-05-21T04:22:03.239Z,97.40
2023-05-21T04:24:31.330Z,97.40
2023-05-21T04:27:10.127Z,97.70
2023-05-21T04:29:37.851Z,98.80
2023-05-21T04:32:06.349Z,97.50
2023-05-21T04:34:34.401Z,98.00
2023-05-21T04:37:04.839Z,97.90
2023-05-21T04:39:32.730Z,97.90
2023-05-21T04:41:59.822Z,97.90
2023-05-21T04:44:26.956Z,98.20
2023-05-21T04:46:55.043Z,98.00
2023-05-21T04:49:22.372Z,97.80
2023-05-21T04:51:49.547Z,98.20
2023-05-21T04:54:16.931Z,98.10
2023-05-21T04:56:44.476Z,98.20
2023-05-21T04:59:11.744Z,98.10
2023-05-21T05:01:39.336Z,98.00
2023-05-21T05:04:07.043Z,98.30
2023-05-21T05:06:34.252Z,98.50
2023-05-21T05:09:01.386Z,98.60
2023-05-21T05:11:28.476Z,98.70
2023-05-21T05:13:55.897Z,98.90
2023-05-21T05:16:25.266Z,98.70
2023-05-21T05:18:53.810Z,98.70
2023-05-21T05:21:24.111Z,98.60
2023-05-21T05:23:51.480Z,98.80
2023-05-21T05:26:22.343Z,98.90
2023-05-21T05:28:49.878Z,98.90
2023-05-21T05:31:17.113Z,98.80
2023-05-21T05:33:44.634Z,99.10
2023-05-21T05:36:12.439Z,99.20
2023-05-21T05:38:40.110Z,99.60
2023-05-21T05:41:07.466Z,99.90
2023-05-21T05:43:34.760Z,99.90
2023-05-21T05:46:02.057Z,99.90
2023-05-21T05:48:29.293Z,99.90
2023-05-21T05:50:57.842Z,99.90
2023-05-21T05:53:26.659Z,99.90
2023-05-21T05:55:54.384Z,99.90
2023-05-21T05:58:21.514Z,99.90
2023-05-21T06:00:56.875Z,99.90
2023-05-21T06:03:25.201Z,99.90
2023-05-21T06:05:53.693Z,99.90
2023-05-21T06:08:20.889Z,99.90
2023-05-21T06:10:48.027Z,99.90
2023-05-21T06:13:15.620Z,99.90
2023-05-21T06:15:45.753Z,99.90
2023-05-21T06:18:13.037Z,99.90
2023-05-21T06:20:40.586Z,99.90
2023-05-21T06:23:08.917Z,99.90
2023-05-21T06:25:36.914Z,99.90
2023-05-21T06:28:04.820Z,99.90
2023-05-21T06:30:33.374Z,99.90
2023-05-21T06:33:00.858Z,99.90
2023-05-21T06:35:28.096Z,99.90
2023-05-21T06:37:55.539Z,99.90
2023-05-21T06:40:22.919Z,99.90
2023-05-21T06:42:53.504Z,99.90
2023-05-21T06:45:39.744Z,99.90
2023-05-21T06:48:32.188Z,99.90
2023-05-21T06:50:59.779Z,99.90
2023-05-21T06:53:26.957Z,99.90
2023-05-21T06:55:54.264Z,99.90
2023-05-21T06:58:39.351Z,99.90
2023-05-21T07:01:06.822Z,99.90
2023-05-21T07:03:34.107Z,99.90
2023-05-21T07:06:02.006Z,99.90
2023-05-21T07:08:29.145Z,99.90
2023-05-21T07:10:56.936Z,99.90
2023-05-21T07:13:24.751Z,99.90
2023-05-21T07:15:53.409Z,99.90
2023-05-21T07:18:21.086Z,99.90
2023-05-21T07:20:48.310Z,99.80
2023-05-21T07:23:16.647Z,99.80
2023-05-21T07:25:44.463Z,99.90
2023-05-21T07:28:13.427Z,99.70
2023-05-21T07:30:40.639Z,99.70
2023-05-21T07:33:12.814Z,99.90
2023-05-21T07:35:40.947Z,99.60
2023-05-21T07:38:08.227Z,99.50
2023-05-21T07:40:35.398Z,99.40
2023-05-21T07:43:03.597Z,99.30
2023-05-21T07:45:32.078Z,99.20
2023-05-21T07:47:59.413Z,99.30
2023-05-21T07:50:27.925Z,99.10
2023-05-21T07:52:55.177Z,98.80
2023-05-21T07:55:22.420Z,98.80
2023-05-21T07:57:52.350Z,98.70
2023-05-21T08:00:25.003Z,99.00
2023-05-21T08:02:56.221Z,98.50
2023-05-21T08:05:25.725Z,98.50
2023-05-21T08:07:52.989Z,99.00
2023-05-21T08:10:20.852Z,98.30
2023-05-21T08:12:51.180Z,98.00
2023-05-21T08:15:19.258Z,98.00
2023-05-21T08:17:46.434Z,98.10
2023-05-21T08:20:15.207Z,98.30
2023-05-21T08:22:44.471Z,97.90
2023-05-21T08:25:12.124Z,97.70
2023-05-21T08:27:39.373Z,97.40
2023-05-21T08:30:07.630Z,97.20
2023-05-21T08:32:35.426Z,97.10
2023-05-21T08:35:02.846Z,97.00
2023-05-21T08:37:50.805Z,97.30
2023-05-21T08:40:46.258Z,96.80
2023-05-21T08:43:16.497Z,96.70
2023-05-21T08:45:53.238Z,96.80
2023-05-21T08:48:24.040Z,96.20
2023-05-21T08:50:54.560Z,96.20
2023-05-21T08:53:30.376Z,96.00
2023-05-21T08:55:58.714Z,96.20
2023-05-21T08:58:44.674Z,96.10
2023-05-21T09:01:13.193Z,95.90
2023-05-21T09:03:44.321Z,95.60
2023-05-21T09:06:14.167Z,95.60
2023-05-21T09:08:46.390Z,95.80
2023-05-21T09:11:22.545Z,95.50
2023-05-21T09:13:57.932Z,95.40
2023-05-21T09:16:32.777Z,95.20
2023-05-21T09:19:02.276Z,95.10
2023-05-21T09:21:34.077Z,94.60
2023-05-21T09:24:14.319Z,92.40
2023-05-21T09:26:45.575Z,92.00
2023-05-21T09:29:13.976Z,92.10
2023-05-21T09:31:45.315Z,91.00
2023-05-21T09:39:32.198Z,98.60
2023-05-21T09:54:34.144Z,81.80
2023-05-21T09:57:02.851Z,80.90
2023-05-21T09:59:39.911Z,80.00
2023-05-21T10:02:23.181Z,79.10
2023-05-21T10:04:54.409Z,92.30
2023-05-21T10:07:28.941Z,79.50
2023-05-21T10:15:04.407Z,90.80
2023-05-21T10:20:01.686Z,77.20
2023-05-21T10:24:58.288Z,77.50
2023-05-21T10:27:26.296Z,88.70
2023-05-21T10:29:57.671Z,74.30
2023-05-21T10:32:27.535Z,75.10
2023-05-21T10:34:55.633Z,75.30
2023-05-21T10:37:27.749Z,92.20
2023-05-21T10:39:58.052Z,86.30
2023-05-21T10:42:31.144Z,67.60
2023-05-21T10:45:50.911Z,80.70
2023-05-21T10:54:37.201Z,64.50
2023-05-21T10:59:47.297Z,61.50
2023-05-21T11:02:17.840Z,61.60
2023-05-21T11:04:45.769Z,63.60
2023-05-21T11:07:13.609Z,64.40
2023-05-21T11:12:13.025Z,67.00
2023-05-21T11:14:43.184Z,63.60
2023-05-21T11:17:37.055Z,72.00
2023-05-21T11:20:14.450Z,63.20
2023-05-21T11:25:09.868Z,61.00
2023-05-21T11:27:38.564Z,58.50
2023-05-21T11:30:16.670Z,60.40
2023-05-21T11:33:10.754Z,60.80
2023-05-21T11:36:01.311Z,63.30
2023-05-21T11:38:31.721Z,60.00
2023-05-21T11:41:04.142Z,60.40
2023-05-21T11:43:31.480Z,61.50
2023-05-21T11:45:59.261Z,60.80
2023-05-21T11:48:28.502Z,60.40
2023-05-21T11:50:57.574Z,60.00
2023-05-21T11:53:24.718Z,59.40
2023-05-21T11:55:57.545Z,56.80
2023-05-21T11:58:24.960Z,55.10
2023-05-21T12:00:52.152Z,56.80
2023-05-21T12:03:19.937Z,58.20
2023-05-21T12:05:48.583Z,57.30
2023-05-21T12:08:25.550Z,57.40
2023-05-21T12:11:00.336Z,57.90
2023-05-21T12:13:28.645Z,58.10
2023-05-21T12:15:56.120Z,55.40
2023-05-21T12:18:23.357Z,56.40
2023-05-21T12:20:52.360Z,55.50
2023-05-21T12:23:26.694Z,55.40
2023-05-21T12:25:54.259Z,55.20
2023-05-21T12:28:22.766Z,55.10
2023-05-21T12:30:49.925Z,55.20
2023-05-21T12:33:19.648Z,55.10
2023-05-21T12:35:50.414Z,55.10
2023-05-21T12:38:17.858Z,52.30
2023-05-21T12:40:45.881Z,55.30
2023-05-21T12:43:13.472Z,54.70
2023-05-21T12:45:41.264Z,54.90
2023-05-21T12:48:08.888Z,56.00
2023-05-21T12:50:41.173Z,52.90
2023-05-21T12:53:11.444Z,52.90
2023-05-21T12:55:38.855Z,53.30
2023-05-21T12:58:08.782Z,51.80
2023-05-21T13:00:37.119Z,51.70
2023-05-21T13:03:06.631Z,52.20
2023-05-21T13:05:35.278Z,50.20
2023-05-21T13:08:02.783Z,49.90
2023-05-21T13:10:29.943Z,51.30
2023-05-21T13:12:57.068Z,51.50
2023-05-21T13:15:24.240Z,51.90
2023-05-21T13:17:53.136Z,52.90
2023-05-21T13:20:23.723Z,49.90
2023-05-21T13:22:52.245Z,49.70
2023-05-21T13:25:27.482Z,50.90
2023-05-21T13:27:55.572Z,50.20
2023-05-21T13:30:23.080Z,51.30
2023-05-21T13:32:50.647Z,50.70
2023-05-21T13:35:18.050Z,51.20
2023-05-21T13:37:46.020Z,51.50
2023-05-21T13:40:15.923Z,50.50
2023-05-21T13:42:45.469Z,49.80
2023-05-21T13:45:16.419Z,48.20
2023-05-21T13:47:45.643Z,49.10
2023-05-21T13:50:13.424Z,49.90
2023-05-21T13:52:40.855Z,49.50
2023-05-21T13:55:08.951Z,50.10
2023-05-21T13:57:36.112Z,47.90
2023-05-21T14:00:04.769Z,46.70
2023-05-21T14:02:35.328Z,47.70
2023-05-21T14:05:02.616Z,46.60
2023-05-21T14:07:29.748Z,46.90
2023-05-21T14:09:56.951Z,45.50
2023-05-21T14:12:24.234Z,45.60
2023-05-21T14:14:51.884Z,46.70
2023-05-21T14:17:19.075Z,45.40
2023-05-21T14:19:47.998Z,48.90
2023-05-21T14:22:15.397Z,43.40
2023-05-21T14:24:42.519Z,45.90
2023-05-21T14:27:09.650Z,46.50
2023-05-21T14:29:36.808Z,46.40
2023-05-21T14:32:04.071Z,45.50
2023-05-21T14:34:31.251Z,45.00
2023-05-21T14:36:58.403Z,44.90
2023-05-21T14:39:25.523Z,44.40
2023-05-21T14:41:53.309Z,43.70
2023-05-21T14:44:20.421Z,45.10
2023-05-21T14:46:47.678Z,45.70
2023-05-21T14:49:14.888Z,45.20
2023-05-21T14:51:43.688Z,43.10
2023-05-21T14:54:14.372Z,44.10
2023-05-21T14:56:41.648Z,44.20
2023-05-21T14:59:11.333Z,44.80
2023-05-21T15:01:39.445Z,43.60
2023-05-21T15:04:08.128Z,43.60
2023-05-21T15:06:35.412Z,44.90
2023-05-21T15:09:02.518Z,45.90
2023-05-21T15:11:29.728Z,46.20
2023-05-21T15:13:56.881Z,45.80
2023-05-21T15:16:24.223Z,45.60
2023-05-21T15:18:51.482Z,46.40
2023-05-21T15:21:18.775Z,44.70
2023-05-21T15:23:45.992Z,45.90
2023-05-21T15:26:13.232Z,45.20
2023-05-21T15:28:40.360Z,45.40
2023-05-21T15:31:07.608Z,45.40
2023-05-21T15:33:34.827Z,45.40
2023-05-21T15:36:02.046Z,44.90
2023-05-21T15:38:29.135Z,44.70
2023-05-21T15:40:59.626Z,44.00
2023-05-21T15:43:26.854Z,45.00
2023-05-21T15:45:53.923Z,45.60
2023-05-21T15:48:22.970Z,45.50
2023-05-21T15:50:50.203Z,45.40
2023-05-21T15:53:17.687Z,43.70
2023-05-21T15:55:44.926Z,43.90
2023-05-21T15:58:12.060Z,43.80
2023-05-21T16:00:39.598Z,44.40
2023-05-21T16:03:06.839Z,43.90
2023-05-21T16:05:34.152Z,43.00
2023-05-21T16:08:01.452Z,43.20
2023-05-21T16:10:28.610Z,44.10
2023-05-21T16:12:55.846Z,42.80
2023-05-21T16:15:23.028Z,43.20
2023-05-21T16:17:50.185Z,44.00
2023-05-21T16:20:18.808Z,45.10
2023-05-21T16:22:46.007Z,44.40
2023-05-21T16:25:13.074Z,44.70
2023-05-21T16:27:40.550Z,43.40
2023-05-21T16:30:08.485Z,44.10
2023-05-21T16:32:35.774Z,44.40
2023-05-21T16:35:03.076Z,44.20
2023-05-21T16:37:30.190Z,44.00
2023-05-21T16:39:57.424Z,44.00
2023-05-21T16:42:24.729Z,44.80
2023-05-21T16:44:52.026Z,45.10
2023-05-21T16:47:19.140Z,45.10
2023-05-21T16:49:46.315Z,44.40
2023-05-21T16:52:13.585Z,44.30
2023-05-21T16:54:40.877Z,43.90
2023-05-21T16:57:08.191Z,44.20
2023-05-21T16:59:35.485Z,43.70
2023-05-21T17:02:03.181Z,44.80
2023-05-21T17:04:30.473Z,45.10
2023-05-21T17:06:57.690Z,45.50
2023-05-21T17:09:24.834Z,46.40
2023-05-21T17:11:51.986Z,46.00
2023-05-21T17:14:32.583Z,44.90
2023-05-21T17:17:00.912Z,45.70
2023-05-21T17:19:28.426Z,45.90
2023-05-21T17:21:56.351Z,46.60
2023-05-21T17:24:23.554Z,46.50
2023-05-21T17:26:50.829Z,44.90
2023-05-21T17:29:18.671Z,45.40
2023-05-21T17:31:46.002Z,46.10
2023-05-21T17:34:13.178Z,41.50
2023-05-21T17:36:40.259Z,45.60
2023-05-21T17:39:09.909Z,46.60
2023-05-21T17:41:37.138Z,46.90
2023-05-21T17:44:04.497Z,47.40
2023-05-21T17:46:31.643Z,47.80
2023-05-21T17:48:58.883Z,48.30
2023-05-21T17:51:26.029Z,48.60
2023-05-21T17:53:53.180Z,49.00
2023-05-21T17:56:21.718Z,49.50
2023-05-21T17:58:50.340Z,49.30
2023-05-21T18:01:17.610Z,49.50
2023-05-21T18:03:44.851Z,49.90
2023-05-21T18:06:12.004Z,49.80
2023-05-21T18:08:39.170Z,49.50
2023-05-21T18:11:06.288Z,49.20
2023-05-21T18:13:33.444Z,49.30
2023-05-21T18:16:00.745Z,48.10
2023-05-21T18:18:28.313Z,48.90
2023-05-21T18:20:55.634Z,49.30
2023-05-21T18:23:22.768Z,49.60
2023-05-21T18:25:50.737Z,50.00
2023-05-21T18:28:18.169Z,50.30
2023-05-21T18:30:45.461Z,50.70
2023-05-21T18:33:12.674Z,50.90
2023-05-21T18:35:39.822Z,51.20
2023-05-21T18:38:09.880Z,51.40
2023-05-21T18:40:40.213Z,51.90
2023-05-21T18:43:07.439Z,52.60
2023-05-21T18:45:34.664Z,54.00
2023-05-21T18:48:03.123Z,52.60
2023-05-21T18:50:31.769Z,52.60
2023-05-21T18:52:59.078Z,52.90
2023-05-21T18:55:26.805Z,53.00
2023-05-21T18:57:55.764Z,53.40
2023-05-21T19:00:24.243Z,53.60
2023-05-21T19:02:51.676Z,54.00
2023-05-21T19:05:19.144Z,54.10
2023-05-21T19:07:46.449Z,54.60
2023-05-21T19:10:14.086Z,54.70
2023-05-21T19:12:42.515Z,55.10
2023-05-21T19:15:11.032Z,55.10
2023-05-21T19:17:39.793Z,55.60
2023-05-21T19:20:09.142Z,55.90
2023-05-21T19:22:37.401Z,55.90
2023-05-21T19:25:05.013Z,56.00
2023-05-21T19:27:32.553Z,56.50
2023-05-21T19:29:59.765Z,56.80
2023-05-21T19:32:26.936Z,56.90
2023-05-21T19:34:54.050Z,57.00
2023-05-21T19:37:21.315Z,57.10
2023-05-21T19:39:50.157Z,57.20
2023-05-21T19:42:18.854Z,57.30
2023-05-21T19:44:46.328Z,57.50
2023-05-21T19:47:13.704Z,57.20
2023-05-21T19:49:40.868Z,57.80
2023-05-21T19:52:08.045Z,58.00
2023-05-21T19:54:35.180Z,58.00
2023-05-21T19:57:02.421Z,58.10
2023-05-21T19:59:29.632Z,58.40
2023-05-21T20:01:56.813Z,58.50
2023-05-21T20:04:24.155Z,58.70
2023-05-21T20:06:52.171Z,58.80
2023-05-21T20:09:19.392Z,59.00
2023-05-21T20:11:48.166Z,59.50
2023-05-21T20:14:15.422Z,59.40
2023-05-21T20:16:42.669Z,57.00
2023-05-21T20:19:11.306Z,59.80
2023-05-21T20:21:38.504Z,60.30
2023-05-21T20:24:06.430Z,60.50
2023-05-21T20:26:36.554Z,60.70
2023-05-21T20:29:03.709Z,60.80
2023-05-21T20:31:31.061Z,61.00
2023-05-21T20:33:58.816Z,61.30
2023-05-21T20:36:27.121Z,61.60
2023-05-21T20:38:54.361Z,61.80
2023-05-21T20:41:21.888Z,62.20
2023-05-21T20:43:49.096Z,62.70
2023-05-21T20:46:18.402Z,62.70
2023-05-21T20:48:45.694Z,63.00
2023-05-21T20:51:13.028Z,63.20
2023-05-21T20:53:40.133Z,63.30
2023-05-21T20:56:08.629Z,63.40
2023-05-21T20:58:35.774Z,64.00
2023-05-21T21:01:03.717Z,64.10
2023-05-21T21:03:34.182Z,64.10
2023-05-21T21:06:01.646Z,64.50
2023-05-21T21:08:28.997Z,64.90
2023-05-21T21:10:56.456Z,65.10
2023-05-21T21:13:23.986Z,65.20
2023-05-21T21:15:51.125Z,65.20
2023-05-21T21:18:18.270Z,65.80
2023-05-21T21:20:49.723Z,65.80
2023-05-21T21:23:17.079Z,65.90
2023-05-21T21:25:44.498Z,66.20
2023-05-21T21:28:11.873Z,66.10
2023-05-21T21:30:41.164Z,67.20
2023-05-21T21:33:09.153Z,64.80
2023-05-21T21:35:36.414Z,67.00
2023-05-21T21:38:05.100Z,66.70
2023-05-21T21:40:32.337Z,67.10
2023-05-21T21:42:59.633Z,67.50
2023-05-21T21:45:26.870Z,67.60
2023-05-21T21:47:54.063Z,68.10
2023-05-21T21:50:21.154Z,68.00
2023-05-21T21:52:48.972Z,68.10
2023-05-21T21:55:16.229Z,68.50
2023-05-21T21:57:43.370Z,68.20
2023-05-21T22:00:15.746Z,68.40
2023-05-21T22:02:44.091Z,68.90
2023-05-21T22:05:14.898Z,69.00
2023-05-21T22:07:46.863Z,69.20
2023-05-21T22:10:18.212Z,68.60
2023-05-21T22:12:46.222Z,69.30
2023-05-21T22:15:25.100Z,69.10
2023-05-21T22:17:52.444Z,69.80
2023-05-21T22:20:20.137Z,69.20
2023-05-21T22:22:47.343Z,69.80
2023-05-21T22:25:14.719Z,69.90
2023-05-21T22:27:43.162Z,70.40
2023-05-21T22:30:11.362Z,70.60
2023-05-21T22:32:38.566Z,70.90
2023-05-21T22:35:06.437Z,70.80
2023-05-21T22:37:33.632Z,71.40
2023-05-21T22:40:00.705Z,71.50
2023-05-21T22:42:27.799Z,71.50
2023-05-21T22:44:54.973Z,71.40
2023-05-21T22:47:23.953Z,71.50
2023-05-21T22:49:53.745Z,71.60
2023-05-21T22:52:24.372Z,71.80
2023-05-21T22:54:54.762Z,72.80
2023-05-21T22:57:21.944Z,72.60
2023-05-21T22:59:49.092Z,72.60
2023-05-21T23:02:16.716Z,73.00
2023-05-21T23:04:44.698Z,73.30
2023-05-21T23:07:12.646Z,73.20
2023-05-21T23:09:39.812Z,72.80
2023-05-21T23:12:08.156Z,73.30
2023-05-21T23:14:35.332Z,73.90
2023-05-21T23:17:02.631Z,73.90
2023-05-21T23:19:30.199Z,74.00
2023-05-21T23:21:57.537Z,74.50
2023-05-21T23:24:24.607Z,74.50
2023-05-21T23:26:52.509Z,74.70
2023-05-21T23:29:19.582Z,74.50
2023-05-21T23:31:47.094Z,74.30
2023-05-21T23:34:15.092Z,74.80
2023-05-21T23:36:42.426Z,74.60
2023-05-21T23:39:09.624Z,74.40
2023-05-21T23:41:37.305Z,75.10
2023-05-21T23:44:04.576Z,75.20
2023-05-21T23:46:31.712Z,75.40
2023-05-21T23:48:58.883Z,75.50
2023-05-21T23:51:26.371Z,75.80
2023-05-21T23:53:53.462Z,76.50
2023-05-21T23:56:20.608Z,76.30
2023-05-21T23:58:53.243Z,76.00
